Main page
METAR-TAF:

METAR-TAF

Airports :

Hayward Executive Airport

Hayward, California, United States

latitude: 37-39-39N, longitude: 122-07-06W, elevation: 46 ft

Current weather observation

The report was made 58 minutes ago, at 07:54 UTC
Calm wind
Temperature 61°F
Humidity 72%
Pressure 29.87 in. Hg
Visibility: 10 miles
Clear sky

METAR: KHWD 220754Z AUTO 00000KT 10SM CLR 16/11 A2987 RMK AO2 SLP125 T01560106 402500122

Time: 01:52 (08:52 UTC)


TAF: missing

Weather observations and forecasts of more than 4000 airports (METAR and TAF reports).

The available stations are represented by yellow and red dots on the map.

Hover mouse over dot to see the name of the station.

Then click to see weather observations and forecasts.

To change the map : click on the green buttons with a black cross to zoom in, on the green button with a dash to zoom out, or on the green arrows for adjacent maps.


METAR-TAF: